Time;durP1;ratioP1;P1;durP2;ratioP2;P2;SDS_P1;SDS_P2;PMS_P1;PMS_P2;Temp;Humidity;BMP_temperature;BMP_pressure;BME280_temperature;BME280_humidity;BME280_pressure;Samples;Min_cycle;Max_cycle;Signal;HPM_P1;HPM_P2
2023/06/05 00:00:21;;;;;;;24.33;15.85;;;18.00;99.90;;;;;;4901101;29;20025;-92
2023/06/05 00:02:50;;;;;;;27.25;14.65;;;17.90;99.90;;;;;;4885952;29;20028;-93
2023/06/05 00:05:18;;;;;;;28.33;15.75;;;17.90;99.90;;;;;;4885565;29;20086;-91
2023/06/05 00:07:45;;;;;;;21.88;14.82;;;17.90;99.90;;;;;;4885253;29;20051;-93
2023/06/05 00:10:14;;;;;;;22.80;15.23;;;17.80;99.90;;;;;;4885233;29;20036;-93
2023/06/05 00:12:41;;;;;;;23.95;16.05;;;17.80;99.90;;;;;;4885280;29;20043;-92
2023/06/05 00:15:08;;;;;;;23.35;15.32;;;17.80;99.90;;;;;;4885341;29;20457;-93
2023/06/05 00:17:36;;;;;;;21.50;14.55;;;17.80;99.90;;;;;;4885285;29;20508;-92
2023/06/05 00:20:05;;;;;;;20.42;15.07;;;17.70;99.90;;;;;;4901326;29;20394;-92
2023/06/05 00:22:33;;;;;;;23.58;16.10;;;17.70;99.90;;;;;;4888384;29;20032;-91
2023/06/05 00:25:00;;;;;;;22.65;14.93;;;17.70;99.90;;;;;;4882766;29;20049;-93
2023/06/05 00:27:27;;;;;;;30.52;16.13;;;17.60;99.90;;;;;;4881688;29;20056;-91
2023/06/05 00:29:54;;;;;;;23.60;14.80;;;17.60;99.90;;;;;;4866521;29;20049;-93
2023/06/05 00:32:20;;;;;;;22.98;14.95;;;17.60;99.90;;;;;;4867331;29;20025;-91
2023/06/05 00:34:50;;;;;;;23.65;15.20;;;17.60;99.90;;;;;;4866300;29;20557;-92
2023/06/05 00:37:16;;;;;;;22.52;14.90;;;17.50;99.90;;;;;;4881605;29;20072;-93
2023/06/05 00:39:46;;;;;;;23.13;15.45;;;17.50;99.90;;;;;;4882612;29;20041;-92
2023/06/05 00:42:14;;;;;;;24.27;15.38;;;17.40;99.90;;;;;;4881779;29;20085;-93
2023/06/05 00:44:41;;;;;;;25.65;14.98;;;17.40;99.90;;;;;;4881356;29;20037;-91
2023/06/05 00:47:11;;;;;;;27.65;15.52;;;17.40;99.90;;;;;;4882115;29;20554;-93
2023/06/05 00:49:38;;;;;;;19.95;14.15;;;17.40;99.90;;;;;;4865646;29;20037;-94
2023/06/05 00:52:04;;;;;;;25.13;15.90;;;17.40;99.90;;;;;;4880997;29;20060;-91
2023/06/05 00:54:32;;;;;;;23.30;16.08;;;17.50;99.90;;;;;;4865854;29;20056;-92
2023/06/05 00:56:58;;;;;;;27.73;16.00;;;17.40;99.90;;;;;;4869413;29;20032;-93
2023/06/05 00:59:26;;;;;;;29.25;16.45;;;17.50;99.90;;;;;;4876211;29;20045;-94
2023/06/05 01:01:54;;;;;;;25.88;15.65;;;17.50;99.90;;;;;;4881742;29;20070;-91
2023/06/05 01:04:23;;;;;;;29.58;17.48;;;17.40;99.90;;;;;;4881654;29;20041;-93
2023/06/05 01:06:51;;;;;;;29.73;18.15;;;17.30;99.90;;;;;;4881771;29;20082;-93
2023/06/05 01:09:18;;;;;;;28.77;17.63;;;17.20;99.90;;;;;;4881560;29;20057;-93
2023/06/05 01:12:04;;;;;;;32.35;18.45;;;17.20;99.90;;;;;;4881581;29;20041;-91
2023/06/05 01:14:34;;;;;;;31.27;17.60;;;17.30;99.90;;;;;;4881456;29;20029;-93
2023/06/05 01:17:08;;;;;;;29.10;17.55;;;17.30;99.90;;;;;;4881317;29;20124;-91
2023/06/05 01:19:36;;;;;;;36.47;18.67;;;17.30;99.90;;;;;;4881564;29;20374;-91
2023/06/05 01:22:05;;;;;;;27.55;17.13;;;17.40;99.90;;;;;;4881630;29;20032;-94
2023/06/05 01:24:32;;;;;;;28.40;17.10;;;17.40;99.90;;;;;;4881373;29;20033;-93
2023/06/05 01:27:07;;;;;;;31.25;17.70;;;17.40;99.90;;;;;;4881392;29;20474;-93
2023/06/05 01:30:00;;;;;;;28.63;17.65;;;17.30;99.90;;;;;;4880909;29;20045;-94
2023/06/05 01:32:48;;;;;;;31.55;18.60;;;17.40;99.90;;;;;;4883845;29;20516;-93
2023/06/05 01:35:27;;;;;;;34.22;18.20;;;17.30;99.90;;;;;;4869683;29;20067;-95
2023/06/05 01:37:57;;;;;;;29.63;17.67;;;17.30;99.90;;;;;;4869006;29;20043;-91
2023/06/05 01:40:25;;;;;;;33.90;18.67;;;17.20;99.90;;;;;;4868284;29;20037;-92
2023/06/05 01:42:55;;;;;;;31.38;17.95;;;17.20;99.90;;;;;;4865382;29;20506;-94
2023/06/05 01:45:22;;;;;;;31.52;18.05;;;17.10;99.90;;;;;;4850176;29;20029;-94
2023/06/05 01:47:49;;;;;;;28.35;17.40;;;17.10;99.90;;;;;;4850084;29;20022;-91
2023/06/05 01:50:17;;;;;;;30.08;17.52;;;17.10;99.90;;;;;;4850201;29;20041;-92
2023/06/05 01:52:47;;;;;;;32.83;17.38;;;17.00;99.90;;;;;;4867775;29;20025;-92
2023/06/05 01:55:20;;;;;;;32.40;18.77;;;17.10;99.90;;;;;;4868512;29;20111;-90
2023/06/05 01:57:47;;;;;;;30.92;17.67;;;17.10;99.90;;;;;;4883847;29;20049;-92
2023/06/05 02:00:15;;;;;;;29.30;17.05;;;17.20;99.90;;;;;;4868532;29;20500;-93
2023/06/05 02:02:46;;;;;;;32.97;16.95;;;17.10;99.90;;;;;;4884230;29;20410;-93
2023/06/05 02:05:14;;;;;;;28.27;17.42;;;17.00;99.90;;;;;;4868293;29;20524;-93
2023/06/05 02:07:47;;;;;;;32.15;18.20;;;17.00;99.90;;;;;;4868371;29;20029;-92
2023/06/05 02:10:13;;;;;;;32.75;17.35;;;17.00;99.90;;;;;;4868227;29;20493;-92
2023/06/05 02:12:42;;;;;;;32.20;17.30;;;17.00;99.90;;;;;;4868048;29;20040;-93
2023/06/05 02:15:13;;;;;;;31.73;17.13;;;17.00;99.90;;;;;;4868155;29;20122;-92
2023/06/05 02:17:52;;;;;;;26.20;16.55;;;17.00;99.90;;;;;;4868005;29;20032;-91
2023/06/05 02:20:25;;;;;;;30.10;16.23;;;17.00;99.90;;;;;;4868176;29;20064;-93
2023/06/05 02:22:52;;;;;;;27.05;16.38;;;16.90;99.90;;;;;;4867840;29;20035;-93
2023/06/05 02:25:20;;;;;;;28.10;17.70;;;16.90;99.90;;;;;;4868867;29;20092;-92
2023/06/05 02:27:50;;;;;;;31.85;17.38;;;16.90;99.90;;;;;;4885439;29;20032;-93
2023/06/05 02:30:16;;;;;;;28.75;16.33;;;16.90;99.90;;;;;;4886508;29;20055;-94
2023/06/05 02:32:46;;;;;;;39.17;18.67;;;17.00;99.90;;;;;;4902074;29;20028;-92
2023/06/05 02:35:13;;;;;;;62.50;19.83;;;17.00;99.90;;;;;;4886345;29;20024;-94
2023/06/05 02:37:44;;;;;;;74.57;20.15;;;17.00;99.90;;;;;;4902032;29;20047;-92
2023/06/05 02:40:13;;;;;;;46.92;19.60;;;17.00;99.90;;;;;;4902702;29;20043;-92
2023/06/05 02:42:40;;;;;;;43.92;18.90;;;17.00;99.90;;;;;;4886240;29;20027;-92
2023/06/05 02:45:08;;;;;;;40.25;18.25;;;17.00;99.90;;;;;;4886200;29;20119;-93
2023/06/05 02:47:35;;;;;;;30.35;17.27;;;17.00;99.90;;;;;;4886294;29;20031;-93
2023/06/05 02:50:02;;;;;;;44.22;17.30;;;16.90;99.90;;;;;;4901603;29;20394;-94
2023/06/05 02:52:35;;;;;;;53.17;17.92;;;16.90;99.90;;;;;;4886444;29;20032;-92
2023/06/05 02:55:10;;;;;;;39.13;16.30;;;17.00;99.90;;;;;;4886864;29;20024;-92
2023/06/05 02:57:41;;;;;;;36.30;17.10;;;16.90;99.90;;;;;;4886193;29;20040;-91
2023/06/05 03:00:16;;;;;;;;;;;17.00;99.90;;;;;;4902015;29;20032;-92
2023/06/05 03:02:48;;;;;;;35.08;14.43;;;17.00;99.90;;;;;;4886094;29;19911;-93
2023/06/05 03:05:24;;;;;;;29.45;15.27;;;17.00;99.90;;;;;;4886348;29;20513;-93
2023/06/05 03:07:53;;;;;;;25.27;14.13;;;17.00;99.90;;;;;;4887463;29;20385;-94
2023/06/05 03:10:21;;;;;;;42.95;16.00;;;17.00;99.90;;;;;;4886067;29;20032;-93
2023/06/05 03:12:51;;;;;;;50.85;15.68;;;17.10;99.90;;;;;;4885972;29;20043;-93
2023/06/05 03:15:18;;;;;;;47.75;14.52;;;17.10;99.90;;;;;;4886267;29;20028;-95
2023/06/05 03:17:47;;;;;;;139.82;18.13;;;17.00;99.90;;;;;;4886159;29;20035;-92
2023/06/05 03:20:17;;;;;;;55.80;15.55;;;17.00;99.90;;;;;;4885891;29;20038;-94
2023/06/05 03:22:44;;;;;;;64.38;16.55;;;17.00;99.90;;;;;;4885632;29;20107;-92
2023/06/05 03:25:11;;;;;;;36.13;14.77;;;17.10;99.90;;;;;;4882338;29;20395;-92
2023/06/05 03:27:41;;;;;;;33.95;14.90;;;17.10;99.90;;;;;;4882597;29;20032;-92
2023/06/05 03:30:11;;;;;;;46.60;15.20;;;17.20;99.90;;;;;;4886012;29;20378;-92
2023/06/05 03:32:47;;;;;;;102.45;14.85;;;17.20;99.90;;;;;;4888423;29;20040;-93
2023/06/05 03:35:17;;;;;;;56.75;14.52;;;17.20;99.90;;;;;;4887310;29;20470;-93
2023/06/05 03:37:44;;;;;;;82.30;14.50;;;17.20;99.90;;;;;;4885898;29;20555;-94
2023/06/05 03:40:12;;;;;;;57.97;15.50;;;17.20;99.90;;;;;;4885655;29;20032;-94
2023/06/05 03:42:40;;;;;;;48.25;14.27;;;17.20;99.90;;;;;;4885803;29;20036;-93
2023/06/05 03:45:08;;;;;;;63.67;14.98;;;17.20;99.90;;;;;;4885625;29;20024;-95
2023/06/05 03:47:37;;;;;;;78.97;15.02;;;17.20;99.90;;;;;;4886020;29;20036;-94
2023/06/05 03:50:07;;;;;;;31.23;13.50;;;17.30;99.90;;;;;;4886333;29;20036;-93
2023/06/05 03:52:41;;;;;;;49.22;13.93;;;17.40;99.90;;;;;;4882525;29;20040;-92
2023/06/05 03:55:09;;;;;;;24.95;13.20;;;17.40;99.90;;;;;;4867267;29;20032;-94
2023/06/05 03:57:40;;;;;;;78.43;15.20;;;17.50;99.90;;;;;;4883106;29;20516;-93
2023/06/05 04:00:10;;;;;;;69.85;15.38;;;17.60;99.90;;;;;;4885706;29;20040;-95
2023/06/05 04:02:41;;;;;;;55.10;15.45;;;17.60;99.90;;;;;;4901601;29;20397;-93
2023/06/05 04:05:14;;;;;;;40.45;15.57;;;17.70;99.90;;;;;;4889249;29;20036;-95
2023/06/05 04:07:44;;;;;;;37.05;14.55;;;17.90;99.90;;;;;;4889067;29;20478;-94
2023/06/05 04:10:12;;;;;;;26.85;13.88;;;18.10;99.90;;;;;;4890209;29;20064;-95
2023/06/05 04:12:41;;;;;;;23.30;12.73;;;18.30;99.90;;;;;;4889051;29;20426;-94
2023/06/05 04:15:14;;;;;;;41.65;13.23;;;18.40;99.90;;;;;;4889667;29;20036;-93
2023/06/05 04:17:42;;;;;;;28.13;12.18;;;18.60;99.90;;;;;;4890650;29;20100;-94
2023/06/05 04:20:14;;;;;;;30.25;11.82;;;18.70;99.90;;;;;;4889212;29;20185;-93
2023/06/05 04:22:43;;;;;;;21.05;9.88;;;18.90;99.90;;;;;;4905124;29;20073;-93
2023/06/05 04:25:21;;;;;;;22.77;9.85;;;18.90;99.90;;;;;;4890067;29;20020;-93
2023/06/05 04:27:57;;;;;;;14.95;9.52;;;19.00;99.90;;;;;;4904174;29;20119;-93
2023/06/05 04:30:37;;;;;;;14.00;9.80;;;19.20;99.90;;;;;;4889730;29;20087;-92
2023/06/05 04:33:13;;;;;;;15.65;9.80;;;19.30;99.90;;;;;;4889103;29;20028;-94
2023/06/05 04:35:46;;;;;;;20.27;10.85;;;19.50;99.90;;;;;;4904402;29;20064;-94
2023/06/05 04:38:23;;;;;;;17.08;11.20;;;19.50;99.90;;;;;;4899642;29;20052;-95
2023/06/05 04:41:13;;;;;;;;;;;;;;;;;;;;;
2023/06/05 04:43:59;;;;;;;21.73;13.25;;;19.70;99.90;;;;;;4885980;29;20040;-94
2023/06/05 04:46:42;;;;;;;15.95;12.30;;;19.90;99.90;;;;;;4870684;29;20029;-94
2023/06/05 04:49:17;;;;;;;14.82;12.45;;;20.00;99.90;;;;;;4870111;29;20041;-93
2023/06/05 04:51:46;;;;;;;;;;;20.30;99.90;;;;;;4870572;29;20040;-93
2023/06/05 04:54:29;;;;;;;14.52;13.05;;;20.70;99.90;;;;;;4885853;29;19911;-94
2023/06/05 04:56:56;;;;;;;16.58;14.70;;;21.40;99.90;;;;;;4870406;29;20048;-93
2023/06/05 04:59:26;;;;;;;18.40;16.70;;;21.90;99.90;;;;;;4887100;29;20064;-93
2023/06/05 05:01:54;;;;;;;18.63;16.95;;;22.30;99.90;;;;;;4893451;29;20060;-92
2023/06/05 05:05:12;;;;;;;19.52;17.80;;;23.30;99.90;;;;;;4896192;29;20028;-93
2023/06/05 05:10:35;;;;;;;18.27;16.98;;;25.40;99.90;;;;;;4793351;29;20047;-93
2023/06/05 05:13:07;;;;;;;20.48;18.80;;;26.40;99.90;;;;;;4792829;29;20074;-96
2023/06/05 05:15:37;;;;;;;20.55;19.05;;;26.20;99.90;;;;;;4778229;29;20043;-94
2023/06/05 05:18:22;;;;;;;22.05;20.38;;;26.00;99.90;;;;;;4792419;29;20438;-92
2023/06/05 05:20:49;;;;;;;22.45;20.75;;;25.60;99.90;;;;;;4793212;29;20198;-94
2023/06/05 05:23:16;;;;;;;21.55;20.02;;;24.90;99.90;;;;;;4809217;29;20046;-95
2023/06/05 05:25:42;;;;;;;23.08;21.02;;;24.60;99.90;;;;;;4795959;29;20038;-94
2023/06/05 05:28:09;;;;;;;22.42;20.63;;;24.50;99.90;;;;;;4782103;29;20047;-94
2023/06/05 05:30:38;;;;;;;21.20;19.50;;;24.40;99.90;;;;;;4792693;29;20413;-94
2023/06/05 06:22:32;;;;;;;;;;;;;;;;;;;;;
2023/06/05 06:26:09;;;;;;;;;;;;;;;;;;;;;
2023/06/05 06:29:04;;;;;;;;;;;;;;;;;;;;;
2023/06/05 06:32:07;;;;;;;;;;;29.70;99.90;;;;;;4848909;29;20034;-93
2023/06/05 06:40:50;;;;;;;24.95;23.08;;;29.20;99.90;;;;;;4901892;29;20048;-93
2023/06/05 06:43:18;;;;;;;24.23;22.63;;;29.50;99.90;;;;;;4885666;29;20048;-94
2023/06/05 06:46:33;;;;;;;24.63;22.92;;;30.00;99.90;;;;;;4894417;29;20025;-94
2023/06/05 06:49:56;;;;;;;24.63;22.85;;;29.90;99.90;;;;;;4896868;29;20092;-94
2023/06/05 06:52:23;;;;;;;25.73;23.77;;;29.60;99.90;;;;;;4847795;29;20105;-94
2023/06/05 06:54:50;;;;;;;24.67;22.88;;;29.30;99.90;;;;;;4830948;29;20102;-93
2023/06/05 08:56:21;;;;;;;25.95;24.30;;;31.90;99.90;;;;;;4903081;29;20052;-91
2023/06/05 08:58:49;;;;;;;26.05;24.15;;;31.80;99.90;;;;;;4886146;29;20131;-93
2023/06/05 09:01:18;;;;;;;25.63;23.95;;;31.50;99.90;;;;;;4884945;29;20056;-91
2023/06/05 09:03:45;;;;;;;25.52;23.92;;;31.40;99.90;;;;;;4869441;29;20029;-92
2023/06/05 09:06:23;;;;;;;26.00;24.30;;;31.30;99.90;;;;;;4902186;29;20060;-94
2023/06/05 09:09:15;;;;;;;;;;;;;;;;;;;;;
2023/06/05 09:12:14;;;;;;;25.92;24.13;;;31.50;99.90;;;;;;4893419;29;20033;-91
2023/06/05 09:14:43;;;;;;;26.15;24.40;;;32.00;99.90;;;;;;4869664;29;20037;-92
2023/06/05 09:17:17;;;;;;;24.77;23.10;;;32.00;99.90;;;;;;4884832;29;20033;-93
2023/06/05 09:19:50;;;;;;;26.10;24.40;;;31.30;99.90;;;;;;4886183;29;20063;-94
2023/06/05 09:22:35;;;;;;;24.88;23.48;;;31.30;99.90;;;;;;4900436;29;20029;-94
2023/06/05 09:25:05;;;;;;;24.80;23.17;;;31.40;99.90;;;;;;4901269;29;20039;-95
2023/06/05 10:18:51;;;;;;;24.38;22.83;;;30.90;99.90;;;;;;4928516;29;20063;-94
2023/06/05 10:21:18;;;;;;;24.42;22.92;;;30.90;99.90;;;;;;4860092;29;20056;-93
2023/06/05 10:23:51;;;;;;;24.83;23.23;;;31.30;99.90;;;;;;4859308;29;20048;-94
2023/06/05 10:26:33;;;;;;;25.75;24.05;;;31.30;99.90;;;;;;4873961;29;20040;-94
2023/06/05 10:29:43;;;;;;;25.05;23.45;;;31.20;99.90;;;;;;4862251;29;20058;-94
2023/06/05 10:32:19;;;;;;;25.20;23.60;;;31.70;99.90;;;;;;4877520;29;20049;-93
2023/06/05 10:35:15;;;;;;;25.35;23.75;;;31.80;99.90;;;;;;4860912;29;20037;-93
2023/06/05 10:37:41;;;;;;;25.30;23.60;;;31.40;99.90;;;;;;4862270;29;20038;-93
2023/06/05 10:40:29;;;;;;;26.13;24.15;;;31.40;99.90;;;;;;4914440;23;20119;-94
2023/06/05 10:43:39;;;;;;;25.88;24.08;;;31.50;99.90;;;;;;4884682;29;20055;-94
2023/06/05 10:46:31;;;;;;;26.20;24.27;;;31.30;99.90;;;;;;4884167;29;20044;-94
2023/06/05 10:49:23;;;;;;;25.77;23.98;;;30.80;99.90;;;;;;4850013;29;20080;-93
2023/06/05 10:51:53;;;;;;;24.33;22.73;;;30.10;99.90;;;;;;4844332;29;20042;-94
2023/06/05 10:54:23;;;;;;;29.17;26.30;;;29.30;99.90;;;;;;4807241;29;20065;-94
2023/06/05 10:57:02;;;;;;;23.92;22.15;;;28.80;99.90;;;;;;4806648;29;20075;-94
2023/06/05 10:59:37;;;;;;;25.73;23.55;;;28.70;99.90;;;;;;4804899;29;20055;-94
2023/06/05 11:02:19;;;;;;;22.90;21.40;;;28.50;99.90;;;;;;4823120;29;20042;-94
2023/06/05 11:05:10;;;;;;;21.23;19.77;;;28.60;99.90;;;;;;4808943;29;20043;-94
2023/06/05 11:07:39;;;;;;;24.65;22.45;;;27.80;99.90;;;;;;4793867;29;20061;-94
2023/06/05 11:10:23;;;;;;;25.17;22.60;;;27.90;99.90;;;;;;4793636;29;20049;-95
2023/06/05 11:12:52;;;;;;;23.45;21.70;;;28.10;99.90;;;;;;4808118;29;20058;-95
2023/06/05 13:59:56;;;;;;;23.70;21.95;;;28.60;99.90;;;;;;4909176;29;19959;-94
2023/06/05 14:02:23;;;;;;;24.02;22.52;;;28.50;99.90;;;;;;4879074;29;20036;-94
2023/06/05 14:05:37;;;;;;;23.80;22.33;;;28.60;99.90;;;;;;4888241;29;20032;-94
2023/06/05 17:18:28;;;;;;;20.90;19.50;;;26.00;99.90;;;;;;5606676;23;20044;-94
2023/06/05 17:21:35;;;;;;;22.52;20.65;;;25.90;99.90;;;;;;5005912;23;20047;-94
2023/06/05 17:24:09;;;;;;;20.35;18.73;;;25.80;99.90;;;;;;4907024;29;20051;-94
2023/06/05 17:41:45;;;;;;;22.73;20.73;;;25.10;99.90;;;;;;4999833;23;20059;-94
2023/06/05 17:47:36;;;;;;;23.02;20.95;;;24.80;99.90;;;;;;5019908;23;20966;-93
2023/06/05 17:53:06;;;;;;;22.70;21.00;;;24.60;99.90;;;;;;4917520;29;20435;-93
2023/06/05 17:55:36;;;;;;;22.45;20.38;;;24.50;99.90;;;;;;4911327;29;20028;-94
2023/06/05 17:58:04;;;;;;;22.02;20.33;;;24.50;99.90;;;;;;4914485;29;20078;-93
2023/06/05 18:00:31;;;;;;;21.90;20.40;;;24.50;99.90;;;;;;4886618;29;20043;-93
2023/06/05 18:03:02;;;;;;;21.80;20.20;;;24.50;99.90;;;;;;4920160;29;20035;-93
2023/06/05 18:05:33;;;;;;;22.10;20.30;;;24.40;99.90;;;;;;4934077;29;20040;-93
2023/06/05 18:08:04;;;;;;;22.25;20.58;;;24.30;99.90;;;;;;4918214;29;20047;-95
2023/06/05 18:10:31;;;;;;;23.45;21.50;;;24.20;99.90;;;;;;4900123;29;20044;-94
2023/06/05 18:12:58;;;;;;;24.42;22.42;;;24.20;99.90;;;;;;4894744;29;20032;-93
2023/06/05 18:15:24;;;;;;;22.92;20.92;;;24.20;99.90;;;;;;4906058;29;20043;-93
2023/06/05 18:17:59;;;;;;;24.48;22.38;;;24.10;99.90;;;;;;4916534;29;20051;-93
2023/06/05 18:20:39;;;;;;;21.90;19.33;;;24.10;99.90;;;;;;4918851;29;20044;-93
2023/06/05 18:23:29;;;;;;;;;;;;;;;;;;;;;
2023/06/05 18:26:00;;;;;;;20.55;18.83;;;24.00;99.90;;;;;;4894882;29;20079;-94
2023/06/05 18:29:06;;;;;;;19.17;17.67;;;24.00;99.90;;;;;;4919606;29;20078;-94
2023/06/05 18:36:09;;;;;;;19.63;18.10;;;23.80;99.90;;;;;;4839057;29;20068;-94
2023/06/05 18:38:55;;;;;;;19.10;17.75;;;23.70;99.90;;;;;;4825720;29;20039;-94
2023/06/05 18:45:20;;;;;;;18.05;16.55;;;23.70;99.90;;;;;;5009744;23;19969;-94
2023/06/05 19:20:54;;;;;;;15.27;13.85;;;23.20;99.90;;;;;;4957314;23;20090;-93
2023/06/05 19:49:45;;;;;;;14.43;13.25;;;23.00;99.90;;;;;;4922278;29;20044;-93
2023/06/05 19:52:14;;;;;;;14.23;13.02;;;23.00;99.90;;;;;;4905620;29;20040;-93
2023/06/05 19:54:41;;;;;;;13.95;12.65;;;23.00;99.90;;;;;;4904035;29;20054;-92
2023/06/05 19:57:09;;;;;;;14.65;13.27;;;23.10;99.90;;;;;;4888013;29;20029;-93
2023/06/05 20:11:12;;;;;;;;;;;;;;;;;;;;;
2023/06/05 20:14:32;;;;;;;12.93;11.88;;;22.90;99.90;;;;;;4820062;29;20050;-94
2023/06/05 20:16:59;;;;;;;19.17;14.25;;;22.80;99.90;;;;;;4789915;29;20074;-93
2023/06/05 20:19:43;;;;;;;35.88;22.70;;;22.70;99.90;;;;;;4899281;23;20055;-94
2023/06/05 20:22:22;;;;;;;14.48;12.68;;;22.60;99.90;;;;;;4908617;29;20115;-94
2023/06/05 20:24:49;;;;;;;14.57;11.93;;;22.60;99.90;;;;;;4910449;29;20059;-92
2023/06/05 20:29:57;;;;;;;12.85;11.75;;;22.50;99.90;;;;;;5060433;23;20405;-93
2023/06/05 20:32:35;;;;;;;14.57;12.20;;;22.50;99.90;;;;;;4927454;29;20060;-93
2023/06/05 20:35:14;;;;;;;12.25;11.00;;;22.50;99.90;;;;;;4930764;29;20044;-93
2023/06/05 20:37:51;;;;;;;13.70;12.32;;;22.40;99.90;;;;;;4907636;29;20029;-93
2023/06/05 20:40:18;;;;;;;14.13;12.45;;;22.40;99.90;;;;;;4908048;29;20032;-94
2023/06/05 20:42:45;;;;;;;18.15;12.20;;;22.40;99.90;;;;;;4905568;29;20021;-93
2023/06/05 20:45:37;;;;;;;12.90;11.70;;;22.40;99.90;;;;;;4929887;23;20061;-94
2023/06/05 20:48:15;;;;;;;13.20;11.82;;;22.40;99.90;;;;;;4893414;29;20494;-93
2023/06/05 20:50:47;;;;;;;12.90;11.63;;;22.30;99.90;;;;;;4892160;29;20032;-94
2023/06/05 20:53:22;;;;;;;14.50;13.20;;;22.30;99.90;;;;;;4885281;29;20032;-93
2023/06/05 20:55:54;;;;;;;14.63;13.13;;;22.20;99.90;;;;;;4892110;29;20029;-94
2023/06/05 20:58:32;;;;;;;13.93;12.52;;;22.20;99.90;;;;;;4877857;29;20124;-94
2023/06/05 21:01:01;;;;;;;15.82;12.43;;;22.10;99.90;;;;;;4875797;29;20041;-94
2023/06/05 21:03:28;;;;;;;14.20;12.80;;;22.10;99.90;;;;;;4877091;29;20084;-94
2023/06/05 21:05:57;;;;;;;18.73;13.27;;;22.00;99.90;;;;;;4892668;29;20052;-93
2023/06/05 21:08:23;;;;;;;15.02;12.80;;;22.00;99.90;;;;;;4873757;29;20495;-92
2023/06/05 21:10:50;;;;;;;15.13;13.10;;;22.00;99.90;;;;;;4888132;29;20053;-93
2023/06/05 21:13:41;;;;;;;15.02;12.45;;;22.00;99.90;;;;;;4883612;29;20490;-93
2023/06/05 21:16:09;;;;;;;17.23;14.48;;;22.00;99.90;;;;;;4887988;29;20033;-93
2023/06/05 21:18:36;;;;;;;37.42;24.65;;;22.10;99.90;;;;;;4877020;29;20028;-93
2023/06/05 21:21:03;;;;;;;18.13;14.73;;;22.10;99.90;;;;;;4891644;29;20479;-94
2023/06/05 21:32:51;;;;;;;15.23;12.70;;;22.00;99.90;;;;;;4925483;29;20052;-93
2023/06/05 21:35:18;;;;;;;16.38;12.23;;;22.00;99.90;;;;;;4855539;29;20045;-93
2023/06/05 21:37:50;;;;;;;14.43;12.02;;;22.10;99.90;;;;;;4871029;29;20044;-93
2023/06/05 21:40:31;;;;;;;13.77;12.32;;;22.00;99.90;;;;;;4875207;29;20105;-94
2023/06/05 21:43:00;;;;;;;13.77;12.38;;;22.00;99.90;;;;;;4872154;29;20417;-93
2023/06/05 21:45:37;;;;;;;15.02;12.70;;;22.00;99.90;;;;;;4876851;29;20065;-94
2023/06/05 21:48:07;;;;;;;39.88;20.63;;;22.00;99.90;;;;;;4874112;29;20049;-93
2023/06/05 21:50:34;;;;;;;21.48;15.50;;;22.00;99.90;;;;;;4873907;29;20021;-93
2023/06/05 21:53:01;;;;;;;17.60;13.80;;;22.10;99.90;;;;;;4873816;29;20044;-93
2023/06/05 21:55:47;;;;;;;19.88;14.20;;;22.10;99.90;;;;;;4873077;29;20039;-93
2023/06/05 21:58:16;;;;;;;25.00;15.50;;;22.10;99.90;;;;;;4871816;29;20049;-92
2023/06/05 22:00:43;;;;;;;19.60;14.18;;;22.10;99.90;;;;;;4873101;29;20048;-93
2023/06/05 22:03:12;;;;;;;16.58;13.85;;;22.00;99.90;;;;;;4875677;29;20029;-93
2023/06/05 22:05:40;;;;;;;31.30;19.20;;;22.00;99.90;;;;;;4871603;29;20048;-93
2023/06/05 22:44:37;;;;;;;13.70;10.80;;;21.90;99.90;;;;;;5733985;23;20079;-94
2023/06/05 22:50:06;;;;;;;13.82;11.57;;;21.90;99.90;;;;;;4929874;23;20120;-94
2023/06/05 22:52:54;;;;;;;12.77;10.73;;;21.90;99.90;;;;;;4918140;29;20036;-93
2023/06/05 22:55:20;;;;;;;20.05;18.00;;;21.90;99.90;;;;;;4910461;29;20039;-92
2023/06/05 22:57:47;;;;;;;12.88;11.55;;;21.90;99.90;;;;;;4905708;29;20027;-93
2023/06/05 23:00:13;;;;;;;13.32;11.77;;;21.90;99.90;;;;;;4920663;29;20040;-92
2023/06/05 23:02:43;;;;;;;13.55;11.88;;;21.90;99.90;;;;;;4904789;29;20027;-93
2023/06/05 23:05:15;;;;;;;12.50;10.80;;;21.90;99.90;;;;;;4920786;29;20476;-92
2023/06/05 23:07:45;;;;;;;14.65;11.30;;;21.80;99.90;;;;;;4920810;29;20028;-95
2023/06/05 23:10:14;;;;;;;11.43;10.30;;;21.80;99.90;;;;;;4920170;29;20504;-91
2023/06/05 23:12:41;;;;;;;14.95;11.45;;;21.80;99.90;;;;;;4904862;29;20031;-93
2023/06/05 23:15:08;;;;;;;12.35;11.05;;;21.70;99.90;;;;;;4905174;29;20036;-93
2023/06/05 23:17:34;;;;;;;12.60;11.00;;;21.70;99.90;;;;;;4905129;29;20034;-91
2023/06/05 23:20:01;;;;;;;11.50;10.35;;;21.60;99.90;;;;;;4904598;29;20040;-93
2023/06/05 23:22:27;;;;;;;13.82;10.98;;;21.50;99.90;;;;;;4904767;29;20035;-93
2023/06/05 23:24:54;;;;;;;15.35;11.35;;;21.50;99.90;;;;;;4904485;29;20032;-93
2023/06/05 23:27:21;;;;;;;16.70;11.77;;;21.40;99.90;;;;;;4904476;29;20045;-93
2023/06/05 23:29:47;;;;;;;13.00;11.07;;;21.40;99.90;;;;;;4904554;29;20032;-92
2023/06/05 23:32:14;;;;;;;13.75;11.07;;;21.40;99.90;;;;;;4905040;29;20119;-93
2023/06/05 23:34:40;;;;;;;11.68;10.35;;;21.40;99.90;;;;;;4904623;29;20059;-92
2023/06/05 23:37:08;;;;;;;12.48;10.90;;;21.40;99.90;;;;;;4905203;29;20118;-93
2023/06/05 23:39:35;;;;;;;13.05;10.40;;;21.40;99.90;;;;;;4904103;29;20032;-92
2023/06/05 23:42:01;;;;;;;13.50;10.32;;;21.40;99.90;;;;;;4904367;29;20028;-91
2023/06/05 23:44:28;;;;;;;11.63;10.40;;;21.40;99.90;;;;;;4904543;29;20040;-93
2023/06/05 23:46:55;;;;;;;10.77;9.57;;;21.30;99.90;;;;;;4904187;29;20040;-93
2023/06/05 23:49:22;;;;;;;11.18;10.07;;;21.30;99.90;;;;;;4916961;29;20076;-94
2023/06/05 23:51:49;;;;;;;12.65;10.25;;;21.30;99.90;;;;;;4901624;29;20040;-92
2023/06/05 23:54:20;;;;;;;13.27;9.88;;;21.30;99.90;;;;;;4904317;29;20040;-93
2023/06/05 23:56:50;;;;;;;12.90;10.48;;;21.30;99.90;;;;;;4901415;29;20080;-92
2023/06/05 23:59:18;;;;;;;11.60;10.40;;;21.30;99.90;;;;;;4900861;29;20040;-94
